Dover, DE

1:51 PM EDT on May 29, 2015 (GMT -0400)
St. Jones Commons (Sunde) | | Change Station
CLOSE
Current Station
Personal Weather Station
Location: Dover, DE
Elevation: 39 ft
Nearby Weather Stations

Elev 39 ft 39.13 °N, 75.51 °W | Updated 26 seconds ago

Overcast
Overcast
80.1 °F
Feels Like 82 °F
N
2.0
Wind Variable Wind from WSW

Today
High -- | Low -- °F
--% Chance of Precip.
Yesterday
High -- | Low -- °F
Precip. -- in
5:39 AM 8:19 PM
Waxing Gibbous, 85% visible
Pressure 30.24 in
Visibility 10.0 miles
Clouds Scattered Clouds 12000 ft
Heat Index 82 °F
Dew Point 64 °F
Humidity 57%
Rainfall 0.00 in
Snow Depth Not available.
UV 9 out of 12
Pollen 7.90 out of 12
Air Quality Not available.
Flu Activity Sporadic
SPECI KDOV 291743Z AUTO 10009KT 10SM -RA SCT120 25/18 A3024 RMK AO2 RAB43

More Conditions Fewer Conditions

Pressure 30.24 in
Visibility 10.0 miles
Clouds Scattered Clouds 12000 ft
Heat Index 82 °F
Dew Point 64 °F
Humidity 57%
Rainfall 0.00 in
Snow Depth Not available.
UV 9 out of 12
Pollen 7.90 out of 12
Air Quality Not available.
Flu Activity Sporadic
SPECI KDOV 291743Z AUTO 10009KT 10SM -RA SCT120 25/18 A3024 RMK AO2 RAB43

More Conditions Fewer Conditions

10-Day Weather Forecast

Almanac

Astronomy

May. 29, 2015 Rise Set
Actual Time
Civil Twilight
Nautical Twilight
Astronomical Twilight
Moon
Length of Visible Light
Length of Day
Tomorrow will be .
, % of the Moon is Illuminated

Today's Extremes

State Highs State Lows

Community

WunderPhotos

Upload Photos

1,825,306 photos uploaded!

WunderBlogs® & News

Nearby

Air Quality

  Air Quality AQ Index Pollutant
Not available.

Snow Depth

Station Depth Elevation

Earthquake Activity

City Distance Mag. Time & Date
Minimum magnitude displayed is 2.5.

Coastal Water Temperatures

Place Temperature

Stations

Nearby Weather Stations

Station Location Temp. Windchill Dew Point Humidity Wind Precip. Elev Updated Type